WZZ891 LHBP-LTAC
Flight info
| Callsign | WZZ891 |
|---|---|
| Flight time | 1h 49m |
| Altitude | 37000 |
| Route | VETIK DCT DEGET DCT EKNAB DCT AGNEP DCT RASUB DCT BULEN DCT RIXEN UA17 YAVRU/N0396F270 A4 SALGO |
| Aircraft | A321/M-SDE1E2E3FGIJ1J4RWXY/LB1G1 |
Departure
| Time | 2026-05-07 02:06 |
|---|---|
| Airport | Budapest Liszt Ferenc International Airport (LHBP) |
Arrival
| Time | 2026-05-07 03:55 |
|---|---|
| Airport | Esenboğa International Airport (LTAC) |
| Time | Latitude | Longitude | Altitude | Speed | Heading |
|---|---|---|---|---|---|
| 2026-05-07 01:28 | 47.43389 | 19.25795 | 457 ft | 0 kts | 222° |
| 2026-05-07 01:57 | 47.43400 | 19.25811 | 457 ft | 4 kts | 225° |
| 2026-05-07 01:58 | 47.43418 | 19.25841 | 457 ft | 4 kts | 233° |
| 2026-05-07 01:58 | 47.43432 | 19.25874 | 457 ft | 4 kts | 250° |
| 2026-05-07 01:58 | 47.43435 | 19.25909 | 454 ft | 4 kts | 298° |
| 2026-05-07 01:58 | 47.43429 | 19.25922 | 453 ft | 1 kts | 312° |
| 2026-05-07 02:01 | 47.43429 | 19.25921 | 457 ft | 1 kts | 312° |
| 2026-05-07 02:01 | 47.43444 | 19.25897 | 456 ft | 5 kts | 312° |
| 2026-05-07 02:01 | 47.43471 | 19.25855 | 456 ft | 7 kts | 312° |
| 2026-05-07 02:01 | 47.43475 | 19.25846 | 457 ft | 3 kts | 304° |
| 2026-05-07 02:02 | 47.43491 | 19.25804 | 457 ft | 6 kts | 300° |
| 2026-05-07 02:02 | 47.43525 | 19.25746 | 457 ft | 10 kts | 313° |
| 2026-05-07 02:02 | 47.43536 | 19.25649 | 457 ft | 11 kts | 240° |
| 2026-05-07 02:02 | 47.43476 | 19.25566 | 457 ft | 13 kts | 222° |
| 2026-05-07 02:03 | 47.43407 | 19.25473 | 457 ft | 14 kts | 222° |
| 2026-05-07 02:03 | 47.43330 | 19.25369 | 457 ft | 16 kts | 222° |
| 2026-05-07 02:03 | 47.43245 | 19.25256 | 457 ft | 16 kts | 222° |
| 2026-05-07 02:03 | 47.43172 | 19.25158 | 457 ft | 12 kts | 222° |
| 2026-05-07 02:04 | 47.43110 | 19.25067 | 457 ft | 13 kts | 233° |
| 2026-05-07 02:04 | 47.43106 | 19.24934 | 457 ft | 13 kts | 307° |
| 2026-05-07 02:04 | 47.43173 | 19.24821 | 456 ft | 14 kts | 312° |
| 2026-05-07 02:04 | 47.43182 | 19.24807 | 456 ft | 3 kts | 313° |
| 2026-05-07 02:05 | 47.43228 | 19.24734 | 456 ft | 32 kts | 312° |
| 2026-05-07 02:05 | 47.43570 | 19.24181 | 453 ft | 111 kts | 312° |
| 2026-05-07 02:05 | 47.44239 | 19.23098 | 460 ft | 171 kts | 311° |
| 2026-05-07 02:05 | 47.45090 | 19.21750 | 969 ft | 183 kts | 310° |
| 2026-05-07 02:06 | 47.45963 | 19.20357 | 1756 ft | 187 kts | 306° |
| 2026-05-07 02:06 | 47.46866 | 19.18890 | 2388 ft | 203 kts | 306° |
| 2026-05-07 02:06 | 47.47867 | 19.17238 | 2731 ft | 227 kts | 306° |
| 2026-05-07 02:06 | 47.49135 | 19.15624 | 3176 ft | 256 kts | 324° |
| 2026-05-07 02:07 | 47.50832 | 19.14616 | 3883 ft | 272 kts | 343° |
| 2026-05-07 02:07 | 47.54686 | 19.15267 | 5503 ft | 295 kts | 25° |
| 2026-05-07 02:07 | 47.56420 | 19.16967 | 6288 ft | 301 kts | 36° |
| 2026-05-07 02:08 | 47.58115 | 19.18810 | 7050 ft | 306 kts | 36° |
| 2026-05-07 02:08 | 47.59845 | 19.20681 | 7848 ft | 310 kts | 36° |
| 2026-05-07 02:08 | 47.61604 | 19.22581 | 8654 ft | 314 kts | 36° |
| 2026-05-07 02:08 | 47.63382 | 19.24495 | 9438 ft | 318 kts | 35° |
| 2026-05-07 02:09 | 47.65188 | 19.26436 | 10196 ft | 323 kts | 35° |
| 2026-05-07 02:09 | 47.67074 | 19.28464 | 10502 ft | 346 kts | 35° |
| 2026-05-07 02:09 | 47.69077 | 19.30624 | 10790 ft | 365 kts | 35° |
| 2026-05-07 02:09 | 47.71083 | 19.33009 | 11400 ft | 372 kts | 43° |
| 2026-05-07 02:10 | 47.72981 | 19.35667 | 12116 ft | 376 kts | 44° |
| 2026-05-07 02:10 | 47.74894 | 19.38348 | 12846 ft | 380 kts | 44° |
| 2026-05-07 02:10 | 47.76781 | 19.41113 | 13570 ft | 383 kts | 51° |
| 2026-05-07 02:10 | 47.78121 | 19.44523 | 14186 ft | 383 kts | 73° |
| 2026-05-07 02:11 | 47.78602 | 19.48374 | 14812 ft | 379 kts | 94° |
| 2026-05-07 02:11 | 47.78217 | 19.52211 | 15455 ft | 373 kts | 113° |
| 2026-05-07 02:11 | 47.77048 | 19.55588 | 16094 ft | 367 kts | 132° |
| 2026-05-07 02:11 | 47.75373 | 19.58432 | 16747 ft | 367 kts | 137° |
| 2026-05-07 02:12 | 47.73638 | 19.61250 | 17400 ft | 370 kts | 137° |
| 2026-05-07 02:12 | 47.71890 | 19.64086 | 18042 ft | 374 kts | 137° |
| 2026-05-07 02:12 | 47.70727 | 19.65976 | 18424 ft | 377 kts | 137° |
| 2026-05-07 02:12 | 47.68949 | 19.68867 | 18942 ft | 381 kts | 136° |
| 2026-05-07 02:13 | 47.67158 | 19.71786 | 19460 ft | 385 kts | 136° |
| 2026-05-07 02:13 | 47.65344 | 19.74742 | 19999 ft | 390 kts | 136° |
| 2026-05-07 02:13 | 47.63508 | 19.77726 | 20535 ft | 394 kts | 136° |
| 2026-05-07 02:13 | 47.61653 | 19.80737 | 21068 ft | 398 kts | 136° |
| 2026-05-07 02:14 | 47.59776 | 19.83784 | 21616 ft | 402 kts | 136° |
| 2026-05-07 02:14 | 47.57264 | 19.87861 | 22322 ft | 407 kts | 136° |
| 2026-05-07 02:14 | 47.55970 | 19.89959 | 22685 ft | 410 kts | 136° |
| 2026-05-07 02:14 | 47.54038 | 19.93086 | 23167 ft | 414 kts | 136° |
| 2026-05-07 02:15 | 47.52078 | 19.96252 | 23622 ft | 419 kts | 136° |
| 2026-05-07 02:15 | 47.50103 | 19.99440 | 24051 ft | 422 kts | 136° |
| 2026-05-07 02:15 | 47.48113 | 20.02652 | 24466 ft | 425 kts | 136° |
| 2026-05-07 02:15 | 47.46111 | 20.05877 | 24906 ft | 427 kts | 136° |
| 2026-05-07 02:16 | 47.44104 | 20.09109 | 25353 ft | 429 kts | 136° |
| 2026-05-07 02:16 | 47.42077 | 20.12370 | 25799 ft | 431 kts | 136° |
| 2026-05-07 02:16 | 47.40043 | 20.15622 | 26231 ft | 433 kts | 136° |
| 2026-05-07 02:16 | 47.37991 | 20.18894 | 26657 ft | 435 kts | 136° |
| 2026-05-07 02:17 | 47.35939 | 20.22166 | 27083 ft | 436 kts | 137° |
| 2026-05-07 02:17 | 47.33745 | 20.25157 | 27481 ft | 435 kts | 143° |
| 2026-05-07 02:17 | 47.31422 | 20.28028 | 27911 ft | 437 kts | 143° |
| 2026-05-07 02:17 | 47.29070 | 20.30910 | 28287 ft | 440 kts | 143° |
| 2026-05-07 02:18 | 47.26710 | 20.33785 | 28657 ft | 442 kts | 143° |
| 2026-05-07 02:18 | 47.24330 | 20.36679 | 29042 ft | 445 kts | 144° |
| 2026-05-07 02:18 | 47.21938 | 20.39592 | 29427 ft | 447 kts | 144° |
| 2026-05-07 02:18 | 47.19533 | 20.42514 | 29793 ft | 449 kts | 144° |
| 2026-05-07 02:19 | 47.17123 | 20.45448 | 30136 ft | 452 kts | 144° |
| 2026-05-07 02:19 | 47.14697 | 20.48410 | 30444 ft | 454 kts | 144° |
| 2026-05-07 02:19 | 47.12274 | 20.51376 | 30743 ft | 456 kts | 144° |
| 2026-05-07 02:19 | 47.09825 | 20.54363 | 31060 ft | 458 kts | 144° |
| 2026-05-07 02:20 | 47.07362 | 20.57359 | 31366 ft | 461 kts | 144° |
| 2026-05-07 02:20 | 47.04891 | 20.60356 | 31751 ft | 461 kts | 144° |
| 2026-05-07 02:20 | 47.02416 | 20.63352 | 32186 ft | 460 kts | 144° |
| 2026-05-07 02:20 | 46.99952 | 20.66333 | 32610 ft | 459 kts | 144° |
| 2026-05-07 02:21 | 46.97486 | 20.69312 | 33027 ft | 459 kts | 144° |
| 2026-05-07 02:21 | 46.95026 | 20.72281 | 33440 ft | 459 kts | 144° |
| 2026-05-07 02:21 | 46.92569 | 20.75239 | 33850 ft | 458 kts | 144° |
| 2026-05-07 02:21 | 46.90109 | 20.78196 | 34226 ft | 458 kts | 144° |
| 2026-05-07 02:22 | 46.87647 | 20.81154 | 34564 ft | 457 kts | 144° |
| 2026-05-07 02:22 | 46.85199 | 20.84096 | 34896 ft | 457 kts | 144° |
| 2026-05-07 02:22 | 46.82733 | 20.87054 | 35204 ft | 458 kts | 144° |
| 2026-05-07 02:22 | 46.80273 | 20.90002 | 35533 ft | 458 kts | 144° |
| 2026-05-07 02:23 | 46.77807 | 20.92948 | 35872 ft | 457 kts | 144° |
| 2026-05-07 02:23 | 46.75349 | 20.95879 | 36214 ft | 457 kts | 144° |
| 2026-05-07 02:23 | 46.72887 | 20.98815 | 36546 ft | 456 kts | 144° |
| 2026-05-07 02:23 | 46.70435 | 21.01738 | 36845 ft | 456 kts | 144° |
| 2026-05-07 02:24 | 46.65523 | 21.07584 | 36960 ft | 455 kts | 144° |
| 2026-05-07 02:24 | 46.60622 | 21.13406 | 36960 ft | 456 kts | 144° |
| 2026-05-07 02:25 | 46.55698 | 21.19242 | 36958 ft | 457 kts | 144° |
| 2026-05-07 02:25 | 46.50756 | 21.25079 | 36959 ft | 457 kts | 144° |
| 2026-05-07 02:26 | 46.46303 | 21.31749 | 36974 ft | 462 kts | 134° |
| 2026-05-07 02:26 | 46.42057 | 21.38742 | 36970 ft | 463 kts | 134° |
| 2026-05-07 02:27 | 46.37786 | 21.45734 | 36968 ft | 463 kts | 135° |
| 2026-05-07 02:27 | 46.33533 | 21.52663 | 36970 ft | 464 kts | 135° |
| 2026-05-07 02:28 | 46.29246 | 21.59642 | 36970 ft | 465 kts | 135° |
| 2026-05-07 02:28 | 46.24951 | 21.66634 | 36959 ft | 465 kts | 134° |
| 2026-05-07 02:29 | 46.20649 | 21.73617 | 36970 ft | 465 kts | 134° |
| 2026-05-07 02:29 | 46.16342 | 21.80591 | 36977 ft | 466 kts | 134° |
| 2026-05-07 02:30 | 46.12023 | 21.87555 | 36990 ft | 466 kts | 135° |
| 2026-05-07 02:30 | 46.07704 | 21.94498 | 36995 ft | 466 kts | 135° |
| 2026-05-07 02:31 | 46.03375 | 22.01451 | 36985 ft | 466 kts | 135° |
| 2026-05-07 02:31 | 45.99049 | 22.08389 | 36994 ft | 466 kts | 135° |
| 2026-05-07 02:32 | 45.94712 | 22.15324 | 36995 ft | 466 kts | 135° |
| 2026-05-07 02:32 | 45.90369 | 22.22239 | 37005 ft | 466 kts | 135° |
| 2026-05-07 02:33 | 45.86016 | 22.29150 | 37007 ft | 467 kts | 135° |
| 2026-05-07 02:33 | 45.81655 | 22.36054 | 37007 ft | 468 kts | 135° |
| 2026-05-07 02:34 | 45.77280 | 22.42970 | 37017 ft | 468 kts | 135° |
| 2026-05-07 02:34 | 45.72908 | 22.49868 | 37014 ft | 468 kts | 135° |
| 2026-05-07 02:35 | 45.68607 | 22.56858 | 37019 ft | 469 kts | 133° |
| 2026-05-07 02:35 | 45.64381 | 22.63966 | 37031 ft | 470 kts | 133° |
| 2026-05-07 02:36 | 45.60147 | 22.71074 | 37034 ft | 470 kts | 133° |
| 2026-05-07 02:36 | 45.55874 | 22.78142 | 37050 ft | 470 kts | 133° |
| 2026-05-07 02:37 | 45.51580 | 22.85177 | 37057 ft | 470 kts | 133° |
| 2026-05-07 02:37 | 45.47309 | 22.92178 | 37062 ft | 471 kts | 133° |
| 2026-05-07 02:38 | 45.43029 | 22.99230 | 37068 ft | 471 kts | 132° |
| 2026-05-07 02:38 | 45.38888 | 23.06457 | 37078 ft | 471 kts | 131° |
| 2026-05-07 02:39 | 45.34798 | 23.13723 | 37070 ft | 471 kts | 131° |
| 2026-05-07 02:39 | 45.30667 | 23.20954 | 37083 ft | 471 kts | 131° |
| 2026-05-07 02:40 | 45.26502 | 23.28128 | 37083 ft | 471 kts | 131° |
| 2026-05-07 02:40 | 45.22331 | 23.35283 | 37091 ft | 471 kts | 131° |
| 2026-05-07 02:41 | 45.18161 | 23.42458 | 37090 ft | 471 kts | 131° |
| 2026-05-07 02:41 | 45.13988 | 23.49612 | 37085 ft | 471 kts | 131° |
| 2026-05-07 02:42 | 45.09810 | 23.56743 | 37072 ft | 471 kts | 131° |
| 2026-05-07 02:42 | 45.05629 | 23.63886 | 37075 ft | 471 kts | 131° |
| 2026-05-07 02:43 | 45.01451 | 23.71008 | 37076 ft | 471 kts | 131° |
| 2026-05-07 02:43 | 44.97263 | 23.78115 | 37080 ft | 471 kts | 131° |
| 2026-05-07 02:44 | 44.93062 | 23.85226 | 37085 ft | 471 kts | 131° |
| 2026-05-07 02:44 | 44.88872 | 23.92308 | 37070 ft | 471 kts | 131° |
| 2026-05-07 02:45 | 44.84669 | 23.99403 | 37078 ft | 471 kts | 131° |
| 2026-05-07 02:45 | 44.80461 | 24.06469 | 37079 ft | 471 kts | 131° |
| 2026-05-07 02:46 | 44.76245 | 24.13528 | 37073 ft | 471 kts | 131° |
| 2026-05-07 02:46 | 44.72062 | 24.20539 | 37074 ft | 471 kts | 131° |
| 2026-05-07 02:47 | 44.67825 | 24.27623 | 37080 ft | 471 kts | 131° |
| 2026-05-07 02:47 | 44.63598 | 24.34664 | 37074 ft | 471 kts | 131° |
| 2026-05-07 02:48 | 44.59389 | 24.41626 | 37074 ft | 471 kts | 131° |
| 2026-05-07 02:48 | 44.55230 | 24.48508 | 37077 ft | 471 kts | 131° |
| 2026-05-07 02:49 | 44.50989 | 24.55519 | 37076 ft | 471 kts | 131° |
| 2026-05-07 02:49 | 44.46720 | 24.62562 | 37071 ft | 471 kts | 132° |
| 2026-05-07 02:50 | 44.42501 | 24.69514 | 37054 ft | 471 kts | 131° |
| 2026-05-07 02:50 | 44.38248 | 24.76492 | 37062 ft | 472 kts | 132° |
| 2026-05-07 02:51 | 44.33979 | 24.83472 | 37060 ft | 472 kts | 132° |
| 2026-05-07 02:51 | 44.29715 | 24.90432 | 37062 ft | 473 kts | 132° |
| 2026-05-07 02:52 | 44.25434 | 24.97391 | 37066 ft | 473 kts | 132° |
| 2026-05-07 02:52 | 44.21147 | 25.04345 | 37059 ft | 473 kts | 132° |
| 2026-05-07 02:53 | 44.16847 | 25.11310 | 37057 ft | 474 kts | 132° |
| 2026-05-07 02:53 | 44.12555 | 25.18256 | 37059 ft | 474 kts | 132° |
| 2026-05-07 02:54 | 44.08245 | 25.25211 | 37052 ft | 474 kts | 132° |
| 2026-05-07 02:54 | 44.03931 | 25.32154 | 37050 ft | 475 kts | 132° |
| 2026-05-07 02:55 | 43.99613 | 25.39070 | 37043 ft | 475 kts | 132° |
| 2026-05-07 02:55 | 43.95335 | 25.46069 | 37049 ft | 476 kts | 130° |
| 2026-05-07 02:56 | 43.91237 | 25.53279 | 37056 ft | 476 kts | 128° |
| 2026-05-07 02:56 | 43.87180 | 25.60530 | 37055 ft | 476 kts | 129° |
| 2026-05-07 02:57 | 43.83076 | 25.67723 | 37053 ft | 476 kts | 129° |
| 2026-05-07 02:57 | 43.78941 | 25.74876 | 37051 ft | 476 kts | 129° |
| 2026-05-07 02:58 | 43.74798 | 25.82004 | 37063 ft | 475 kts | 129° |
| 2026-05-07 02:58 | 43.70780 | 25.89240 | 37068 ft | 474 kts | 127° |
| 2026-05-07 02:59 | 43.67558 | 25.95348 | 37060 ft | 473 kts | 126° |
| 2026-05-07 02:59 | 43.63678 | 26.02683 | 37066 ft | 473 kts | 127° |
| 2026-05-07 03:00 | 43.59757 | 26.09947 | 37068 ft | 472 kts | 127° |
| 2026-05-07 03:00 | 43.55800 | 26.17184 | 37070 ft | 472 kts | 127° |
| 2026-05-07 03:01 | 43.51845 | 26.24408 | 37073 ft | 472 kts | 127° |
| 2026-05-07 03:01 | 43.47894 | 26.31645 | 37082 ft | 472 kts | 127° |
| 2026-05-07 03:02 | 43.43953 | 26.38852 | 37089 ft | 471 kts | 127° |
| 2026-05-07 03:02 | 43.40011 | 26.46041 | 37078 ft | 471 kts | 127° |
| 2026-05-07 03:03 | 43.36055 | 26.53235 | 37082 ft | 471 kts | 127° |
| 2026-05-07 03:03 | 43.32098 | 26.60405 | 37103 ft | 471 kts | 127° |
| 2026-05-07 03:04 | 43.28139 | 26.67564 | 37101 ft | 471 kts | 127° |
| 2026-05-07 03:04 | 43.24173 | 26.74725 | 37105 ft | 471 kts | 127° |
| 2026-05-07 03:05 | 43.20197 | 26.81870 | 37113 ft | 471 kts | 126° |
| 2026-05-07 03:05 | 43.16227 | 26.89003 | 37113 ft | 471 kts | 127° |
| 2026-05-07 03:06 | 43.12276 | 26.96080 | 37123 ft | 470 kts | 127° |
| 2026-05-07 03:06 | 43.08270 | 27.03225 | 37125 ft | 470 kts | 127° |
| 2026-05-07 03:07 | 43.04310 | 27.10277 | 37127 ft | 470 kts | 126° |
| 2026-05-07 03:07 | 43.00332 | 27.17357 | 37114 ft | 470 kts | 127° |
| 2026-05-07 03:08 | 42.96342 | 27.24453 | 37123 ft | 470 kts | 127° |
| 2026-05-07 03:08 | 42.92348 | 27.31524 | 37133 ft | 471 kts | 126° |
| 2026-05-07 03:09 | 42.88357 | 27.38566 | 37130 ft | 471 kts | 126° |
| 2026-05-07 03:09 | 42.84340 | 27.45637 | 37130 ft | 471 kts | 126° |
| 2026-05-07 03:10 | 42.80331 | 27.52681 | 37130 ft | 471 kts | 126° |
| 2026-05-07 03:10 | 42.76306 | 27.59724 | 37129 ft | 471 kts | 126° |
| 2026-05-07 03:11 | 42.72279 | 27.66763 | 37129 ft | 472 kts | 126° |
| 2026-05-07 03:11 | 42.68245 | 27.73811 | 37130 ft | 472 kts | 126° |
| 2026-05-07 03:12 | 42.64213 | 27.80834 | 37124 ft | 472 kts | 126° |
| 2026-05-07 03:12 | 42.60162 | 27.87868 | 37128 ft | 473 kts | 126° |
| 2026-05-07 03:13 | 42.56106 | 27.94902 | 37130 ft | 474 kts | 126° |
| 2026-05-07 03:13 | 42.52036 | 28.01931 | 37133 ft | 474 kts | 126° |
| 2026-05-07 03:14 | 42.47952 | 28.08965 | 37142 ft | 475 kts | 126° |
| 2026-05-07 03:15 | 42.41821 | 28.19512 | 37132 ft | 476 kts | 126° |
| 2026-05-07 03:15 | 42.37710 | 28.26552 | 37136 ft | 477 kts | 126° |
| 2026-05-07 03:16 | 42.33593 | 28.33586 | 37145 ft | 477 kts | 126° |
| 2026-05-07 03:16 | 42.29475 | 28.40621 | 37127 ft | 478 kts | 126° |
| 2026-05-07 03:17 | 42.25339 | 28.47658 | 37140 ft | 478 kts | 126° |
| 2026-05-07 03:17 | 42.21216 | 28.54656 | 37140 ft | 479 kts | 127° |
| 2026-05-07 03:18 | 42.17114 | 28.61590 | 37150 ft | 479 kts | 127° |
| 2026-05-07 03:18 | 42.12962 | 28.68603 | 37148 ft | 479 kts | 127° |
| 2026-05-07 03:19 | 42.08807 | 28.75620 | 37140 ft | 479 kts | 125° |
| 2026-05-07 03:19 | 42.05176 | 28.83092 | 37152 ft | 477 kts | 120° |
| 2026-05-07 03:20 | 42.01637 | 28.90645 | 37147 ft | 477 kts | 120° |
| 2026-05-07 03:20 | 41.98093 | 28.98186 | 37146 ft | 477 kts | 120° |
| 2026-05-07 03:21 | 41.94549 | 29.05729 | 37157 ft | 478 kts | 120° |
| 2026-05-07 03:21 | 41.90987 | 29.13265 | 37152 ft | 478 kts | 120° |
| 2026-05-07 03:22 | 41.87422 | 29.20784 | 37143 ft | 478 kts | 120° |
| 2026-05-07 03:22 | 41.83853 | 29.28300 | 37148 ft | 478 kts | 120° |
| 2026-05-07 03:23 | 41.80273 | 29.35817 | 37156 ft | 478 kts | 120° |
| 2026-05-07 03:23 | 41.76691 | 29.43312 | 37153 ft | 478 kts | 120° |
| 2026-05-07 03:24 | 41.73108 | 29.50809 | 37145 ft | 478 kts | 120° |
| 2026-05-07 03:24 | 41.69523 | 29.58291 | 37160 ft | 478 kts | 120° |
| 2026-05-07 03:25 | 41.65953 | 29.65722 | 37152 ft | 478 kts | 120° |
| 2026-05-07 03:25 | 41.62355 | 29.73182 | 37146 ft | 478 kts | 120° |
| 2026-05-07 03:26 | 41.58744 | 29.80643 | 37159 ft | 478 kts | 120° |
| 2026-05-07 03:26 | 41.55141 | 29.88085 | 37152 ft | 478 kts | 120° |
| 2026-05-07 03:27 | 41.51537 | 29.95533 | 37152 ft | 478 kts | 120° |
| 2026-05-07 03:27 | 41.47919 | 30.02969 | 37152 ft | 478 kts | 120° |
| 2026-05-07 03:28 | 41.44295 | 30.10386 | 37162 ft | 478 kts | 120° |
| 2026-05-07 03:28 | 41.40664 | 30.17794 | 37140 ft | 478 kts | 121° |
| 2026-05-07 03:29 | 41.37022 | 30.25209 | 37137 ft | 478 kts | 121° |
| 2026-05-07 03:29 | 41.33389 | 30.32611 | 37157 ft | 478 kts | 120° |
| 2026-05-07 03:30 | 41.29739 | 30.40015 | 37152 ft | 478 kts | 121° |
| 2026-05-07 03:30 | 41.26088 | 30.47399 | 37151 ft | 478 kts | 121° |
| 2026-05-07 03:31 | 41.22437 | 30.54779 | 37172 ft | 478 kts | 121° |
| 2026-05-07 03:31 | 41.18775 | 30.62179 | 37169 ft | 478 kts | 121° |
| 2026-05-07 03:32 | 41.15119 | 30.69526 | 37165 ft | 478 kts | 121° |
| 2026-05-07 03:32 | 41.11447 | 30.76882 | 37158 ft | 478 kts | 121° |
| 2026-05-07 03:33 | 41.07780 | 30.84227 | 36980 ft | 477 kts | 121° |
| 2026-05-07 03:33 | 41.05949 | 30.87886 | 36718 ft | 476 kts | 121° |
| 2026-05-07 03:33 | 41.04114 | 30.91543 | 36463 ft | 476 kts | 121° |
| 2026-05-07 03:33 | 41.02285 | 30.95190 | 36208 ft | 476 kts | 121° |
| 2026-05-07 03:34 | 41.00457 | 30.98830 | 35965 ft | 476 kts | 121° |
| 2026-05-07 03:34 | 40.98643 | 31.02447 | 35552 ft | 477 kts | 120° |
| 2026-05-07 03:34 | 40.96815 | 31.06121 | 34829 ft | 481 kts | 120° |
| 2026-05-07 03:34 | 40.94995 | 31.09796 | 34397 ft | 477 kts | 119° |
| 2026-05-07 03:35 | 40.93180 | 31.13475 | 33858 ft | 474 kts | 119° |
| 2026-05-07 03:35 | 40.91386 | 31.17114 | 33370 ft | 471 kts | 119° |
| 2026-05-07 03:35 | 40.89604 | 31.20717 | 32882 ft | 467 kts | 120° |
| 2026-05-07 03:35 | 40.87832 | 31.24289 | 32386 ft | 463 kts | 120° |
| 2026-05-07 03:36 | 40.86071 | 31.27831 | 31921 ft | 460 kts | 120° |
| 2026-05-07 03:36 | 40.84318 | 31.31353 | 31410 ft | 456 kts | 120° |
| 2026-05-07 03:36 | 40.82581 | 31.34833 | 30927 ft | 453 kts | 121° |
| 2026-05-07 03:36 | 40.80853 | 31.38295 | 30450 ft | 449 kts | 121° |
| 2026-05-07 03:37 | 40.79140 | 31.41723 | 29920 ft | 446 kts | 121° |
| 2026-05-07 03:37 | 40.77438 | 31.45119 | 29461 ft | 440 kts | 121° |
| 2026-05-07 03:37 | 40.75773 | 31.48443 | 29017 ft | 435 kts | 121° |
| 2026-05-07 03:37 | 40.74099 | 31.51782 | 28580 ft | 430 kts | 121° |
| 2026-05-07 03:38 | 40.72466 | 31.55034 | 28129 ft | 426 kts | 121° |
| 2026-05-07 03:38 | 40.70841 | 31.58270 | 27713 ft | 422 kts | 121° |
| 2026-05-07 03:38 | 40.69225 | 31.61484 | 27279 ft | 418 kts | 121° |
| 2026-05-07 03:38 | 40.67625 | 31.64661 | 26880 ft | 415 kts | 121° |
| 2026-05-07 03:39 | 40.66033 | 31.67816 | 26472 ft | 413 kts | 121° |
| 2026-05-07 03:39 | 40.64451 | 31.70949 | 26056 ft | 410 kts | 121° |
| 2026-05-07 03:39 | 40.62876 | 31.74067 | 25655 ft | 408 kts | 121° |
| 2026-05-07 03:39 | 40.61308 | 31.77169 | 25257 ft | 406 kts | 121° |
| 2026-05-07 03:40 | 40.59743 | 31.80262 | 24832 ft | 404 kts | 121° |
| 2026-05-07 03:40 | 40.58276 | 31.83395 | 24418 ft | 399 kts | 113° |
| 2026-05-07 03:40 | 40.57204 | 31.86718 | 23995 ft | 394 kts | 107° |
| 2026-05-07 03:40 | 40.56236 | 31.90046 | 23539 ft | 393 kts | 107° |
| 2026-05-07 03:41 | 40.55269 | 31.93348 | 23099 ft | 390 kts | 107° |
| 2026-05-07 03:41 | 40.54299 | 31.96648 | 22658 ft | 386 kts | 108° |
| 2026-05-07 03:41 | 40.53332 | 31.99923 | 22227 ft | 382 kts | 108° |
| 2026-05-07 03:41 | 40.52361 | 32.03197 | 21790 ft | 379 kts | 108° |
| 2026-05-07 03:42 | 40.51419 | 32.06370 | 21347 ft | 376 kts | 108° |
| 2026-05-07 03:42 | 40.50473 | 32.09547 | 20924 ft | 373 kts | 108° |
| 2026-05-07 03:42 | 40.49536 | 32.12701 | 20489 ft | 370 kts | 108° |
| 2026-05-07 03:42 | 40.48600 | 32.15863 | 20058 ft | 367 kts | 108° |
| 2026-05-07 03:43 | 40.47530 | 32.18881 | 19617 ft | 367 kts | 118° |
| 2026-05-07 03:43 | 40.46024 | 32.21575 | 19171 ft | 367 kts | 131° |
| 2026-05-07 03:43 | 40.44179 | 32.23898 | 18721 ft | 366 kts | 136° |
| 2026-05-07 03:43 | 40.42313 | 32.26156 | 18247 ft | 364 kts | 135° |
| 2026-05-07 03:44 | 40.40482 | 32.28376 | 17792 ft | 361 kts | 136° |
| 2026-05-07 03:44 | 40.38650 | 32.30595 | 17349 ft | 357 kts | 136° |
| 2026-05-07 03:44 | 40.36828 | 32.32801 | 16914 ft | 354 kts | 136° |
| 2026-05-07 03:44 | 40.35028 | 32.34987 | 16481 ft | 351 kts | 135° |
| 2026-05-07 03:45 | 40.33277 | 32.37117 | 16051 ft | 349 kts | 136° |
| 2026-05-07 03:45 | 40.31483 | 32.39295 | 15625 ft | 345 kts | 136° |
| 2026-05-07 03:45 | 40.29726 | 32.41429 | 15195 ft | 343 kts | 136° |
| 2026-05-07 03:45 | 40.27982 | 32.43544 | 14775 ft | 341 kts | 136° |
| 2026-05-07 03:46 | 40.26243 | 32.45655 | 14352 ft | 339 kts | 136° |
| 2026-05-07 03:46 | 40.24524 | 32.47740 | 13929 ft | 337 kts | 136° |
| 2026-05-07 03:46 | 40.22809 | 32.49816 | 13479 ft | 334 kts | 136° |
| 2026-05-07 03:46 | 40.21109 | 32.51870 | 13071 ft | 331 kts | 136° |
| 2026-05-07 03:47 | 40.19991 | 32.53217 | 12793 ft | 329 kts | 136° |
| 2026-05-07 03:47 | 40.18320 | 32.55229 | 12378 ft | 325 kts | 136° |
| 2026-05-07 03:47 | 40.16111 | 32.57893 | 11830 ft | 321 kts | 136° |
| 2026-05-07 03:47 | 40.14482 | 32.59859 | 11437 ft | 319 kts | 137° |
| 2026-05-07 03:48 | 40.13402 | 32.61160 | 11167 ft | 317 kts | 137° |
| 2026-05-07 03:48 | 40.11788 | 32.63102 | 10763 ft | 314 kts | 137° |
| 2026-05-07 03:48 | 40.10188 | 32.65024 | 10368 ft | 312 kts | 137° |
| 2026-05-07 03:48 | 40.08623 | 32.66905 | 10191 ft | 302 kts | 137° |
| 2026-05-07 03:49 | 40.07082 | 32.68756 | 9655 ft | 294 kts | 137° |
| 2026-05-07 03:49 | 40.05605 | 32.70529 | 9068 ft | 287 kts | 138° |
| 2026-05-07 03:49 | 40.04146 | 32.72279 | 8417 ft | 284 kts | 138° |
| 2026-05-07 03:49 | 40.02697 | 32.74013 | 7774 ft | 282 kts | 138° |
| 2026-05-07 03:50 | 40.01255 | 32.75739 | 7123 ft | 280 kts | 138° |
| 2026-05-07 03:50 | 39.99830 | 32.77445 | 6373 ft | 277 kts | 138° |
| 2026-05-07 03:50 | 39.98452 | 32.79187 | 5756 ft | 273 kts | 129° |
| 2026-05-07 03:50 | 39.97670 | 32.81308 | 5599 ft | 250 kts | 101° |
| 2026-05-07 03:51 | 39.97693 | 32.83479 | 5588 ft | 233 kts | 75° |
| 2026-05-07 03:51 | 39.98349 | 32.85326 | 5598 ft | 220 kts | 52° |
| 2026-05-07 03:51 | 39.99450 | 32.86662 | 5586 ft | 214 kts | 34° |
| 2026-05-07 03:51 | 40.00645 | 32.87790 | 5597 ft | 207 kts | 35° |
| 2026-05-07 03:52 | 40.01749 | 32.88837 | 5546 ft | 184 kts | 35° |
| 2026-05-07 03:52 | 40.02716 | 32.89754 | 5374 ft | 163 kts | 35° |
| 2026-05-07 03:52 | 40.03605 | 32.90597 | 5169 ft | 155 kts | 35° |
| 2026-05-07 03:52 | 40.04466 | 32.91414 | 4964 ft | 151 kts | 35° |
| 2026-05-07 03:53 | 40.05313 | 32.92218 | 4767 ft | 150 kts | 35° |
| 2026-05-07 03:53 | 40.06152 | 32.93016 | 4571 ft | 149 kts | 35° |
| 2026-05-07 03:53 | 40.06988 | 32.93810 | 4362 ft | 148 kts | 36° |
| 2026-05-07 03:53 | 40.07818 | 32.94598 | 4169 ft | 146 kts | 36° |
| 2026-05-07 03:54 | 40.08600 | 32.95342 | 3960 ft | 143 kts | 36° |
| 2026-05-07 03:54 | 40.09402 | 32.96105 | 3751 ft | 141 kts | 36° |
| 2026-05-07 03:54 | 40.10192 | 32.96856 | 3551 ft | 140 kts | 36° |
| 2026-05-07 03:54 | 40.10973 | 32.97601 | 3362 ft | 139 kts | 36° |
| 2026-05-07 03:55 | 40.11738 | 32.98333 | 3144 ft | 138 kts | 35° |
| 2026-05-07 03:55 | 40.12428 | 32.98988 | 3118 ft | 100 kts | 36° |
| 2026-05-07 03:55 | 40.12851 | 32.99392 | 3123 ft | 57 kts | 37° |
| 2026-05-07 03:55 | 40.13079 | 32.99612 | 3122 ft | 33 kts | 36° |
| 2026-05-07 03:56 | 40.13211 | 32.99776 | 3125 ft | 22 kts | 59° |
| 2026-05-07 03:56 | 40.13269 | 32.99932 | 3125 ft | 8 kts | 68° |
| 2026-05-07 03:56 | 40.13295 | 33.00011 | 3126 ft | 11 kts | 65° |
| 2026-05-07 03:56 | 40.13330 | 33.00110 | 3127 ft | 13 kts | 66° |
| 2026-05-07 03:57 | 40.13361 | 33.00229 | 3128 ft | 15 kts | 87° |
| 2026-05-07 03:57 | 40.13305 | 33.00342 | 3129 ft | 16 kts | 157° |
| 2026-05-07 03:57 | 40.13251 | 33.00350 | 3127 ft | 2 kts | 192° |
| 2026-05-07 03:57 | 40.13225 | 33.00343 | 3128 ft | 6 kts | 191° |
| 2026-05-07 03:58 | 40.13172 | 33.00334 | 3125 ft | 10 kts | 185° |
| 2026-05-07 03:58 | 40.13160 | 33.00333 | 3126 ft | 0 kts | 185° |
| 2026-05-07 04:00 | 40.13135 | 33.00330 | 3124 ft | 7 kts | 185° |
| 2026-05-07 04:00 | 40.13070 | 33.00322 | 3125 ft | 11 kts | 186° |
| 2026-05-07 04:00 | 40.12987 | 33.00279 | 3126 ft | 15 kts | 216° |
| 2026-05-07 04:01 | 40.12897 | 33.00191 | 3123 ft | 17 kts | 223° |
| 2026-05-07 04:01 | 40.12803 | 33.00101 | 3123 ft | 17 kts | 216° |
| 2026-05-07 04:01 | 40.12728 | 33.00028 | 3123 ft | 14 kts | 222° |
| 2026-05-07 04:01 | 40.12707 | 32.99994 | 3123 ft | 0 kts | 228° |
| 2026-05-07 04:02 | 40.12690 | 32.99975 | 3123 ft | 6 kts | 216° |
| 2026-05-07 04:02 | 40.12639 | 32.99943 | 3123 ft | 10 kts | 186° |
| 2026-05-07 04:02 | 40.12594 | 32.99886 | 3122 ft | 12 kts | 269° |
| 2026-05-07 04:02 | 40.12591 | 32.99770 | 3123 ft | 14 kts | 253° |
| 2026-05-07 04:03 | 40.12512 | 32.99679 | 3122 ft | 17 kts | 215° |
| 2026-05-07 04:03 | 40.12407 | 32.99580 | 3120 ft | 20 kts | 216° |
| 2026-05-07 04:03 | 40.12300 | 32.99477 | 3119 ft | 18 kts | 217° |
| 2026-05-07 04:03 | 40.12202 | 32.99383 | 3118 ft | 19 kts | 216° |
| 2026-05-07 04:04 | 40.12084 | 32.99271 | 3117 ft | 22 kts | 216° |
| 2026-05-07 04:04 | 40.11990 | 32.99181 | 3115 ft | 18 kts | 216° |
| 2026-05-07 04:04 | 40.11903 | 32.99098 | 3114 ft | 17 kts | 218° |
| 2026-05-07 04:04 | 40.11825 | 32.99043 | 3114 ft | 14 kts | 182° |
| 2026-05-07 04:05 | 40.11768 | 32.99096 | 3113 ft | 11 kts | 139° |
| 2026-05-07 04:05 | 40.11711 | 32.99163 | 3113 ft | 7 kts | 109° |
| 2026-05-07 04:05 | 40.11680 | 32.99218 | 3113 ft | 8 kts | 152° |
| 2026-05-07 04:05 | 40.11670 | 32.99225 | 3113 ft | 3 kts | 156° |
| 2026-05-07 04:06 | 40.11663 | 32.99229 | 3113 ft | 1 kts | 156° |
| 2026-05-07 04:06 | 40.11656 | 32.99233 | 3113 ft | 0 kts | 156° |